Terminal Aerodrome Forecast
Issued by NWS

Home | Current Version | Previous Version | Text Only | Print | Product List | Glossary On
Versions: 1 2 3 4 5 6 7 8 9 10 11 12 13 14 15 16 17 18 19 20
798
FTAK31 PAJN 312336
TAFASI
TAF
PASI 312336Z 0100/0124 12010KT P6SM -RA BKN045 OVC060
      TEMPO 0100/0104 VRB04KT 6SM -RA BR BKN035 OVC050
     FM011200 13010KT P6SM -RA BKN030 OVC045
     FM012000 17012KT P6SM -RA BKN025 OVC035=

USA.gov is the U.S. government's official web portal to all federal, state and local government web resources and services.